Saint John, Canada
Current Conditions -  °F | °C
As of 10:00 AM on Wednesday 22 Oct 2014 (Local Time) from CYSJ Reporting Station
Overcast Overcast  
Wind Chill: 50°   Ceiling: 7500
Heat Index: 50°   Visibility: 15mi
Dew Point: 39°   Wind: 13mph
Humidity: 66%   Direction: 60°ENE
Pressure: 30.29"   Gusts: 18mph
Location:  45.27°N, 66.06°W
Report Text: CYSJ 221300Z 06011G16KT 15SM BKN075 OVC110 10/04 A3029 RMK AC7AC1 SLP259
Loading
Personal Weather Stations






























Interactive Weather Map
Tropical Storm Tracking
New forecast layout! Learn more

10-Day Weather Forecast

Advertisements
Track Severe Weather on mobile